Aeroporto :
LOGIN :

Iscrizione | Disclaimer

   EN    FR    IT 

 










Sommario :    VFR   VFR Marginale   IFR   IFR Intensivo   IFR Molto Intensivo
Visibilità : 
Base nubi : 
>= 8 km
>= 3000ft
5 / 8 km
1000 / 3000 ft
1500m / 5 km
500 / 1000 ft
800 / 1500m
200 / 500 ft
< 800m
< 200 ft
Simboli :   Temporali  Nebbia  Neve Forte  Precipitazioni Forti  Vento > 20 kt
SIGMETs :   Varie  Temporali  Ghiacco  Turbolenza  Onda orograficha  Ceneri Vulcaniche






- Altitudine del aeroporto : 124 ft
- Codice IATA : NHT


EGWU - RAF Northolt

ULTIMO METAR :
  • 041450Z 05009KT 9999 BKN018 05/02 Q1016 NOSIG RMK WHT WHT

METARs OBSOLETI :
  • 041420Z 06008KT 9999 BKN020 05/02 Q1016 NOSIG RMK WHT WHT
  • 041350Z 05009KT 9999 BKN024 05/02 Q1016 TEMPO BKN025
  • 041320Z 04008KT 9999 BKN024 05/02 Q1016 TEMPO BKN025 RMK WHT TEMPO BLU
  • 041250Z 05010KT 9999 FEW016 BKN022 05/02 Q1016 NOSIG
  • 041220Z 05008KT 9999 BKN020 05/02 Q1016 TEMPO BKN025 RMK WHT TEMPO WHT

TAF TAF EGWU
Valido dal 04 a 15 ore il 05 a 09 ore UTC


041335Z 0415/0509 05010KT 9999 BKN022
TEMPO 0415/0509 BKN025
PROB30
TEMPO 0415/0509 BKN012



MetMap, La meteo Aeronautica in un colpo d'occhio ! - Copyright ORBIFLY Dicembre 2007 - Disclaimer

ORBIFLY MET'MAP TEAM :

Programmazione e sviluppo : Alexandra Zaïnal
Concezione : Baudouin d'Aumeries
Supporto tecnico e logistico : Manuel Goepfert
Aiuto : Marc-Olivier Méhu
Aiuto per la traduzione : Arnaldo La Scala




FONTI E CREDITI :

   NOAA